Langley Air Force Base
KLFI : rendu visible

Aérodrome :











RETROUVEZ-NOUS SUR...

 
LOGIN :

S'inscrire | Disclaimer

   EN    FR    IT 

 









Légende :    VFR   VFR Marginal   IFR   IFR Intensif   IFR Très Intensif
Visi : 
Plafond : 
>= 8 km
>= 3000ft
5 à 8 km
1000 à 3000 ft
1500m à 5 km
500 à 1000 ft
800 à 1500m
200 à 500 ft
< 800m
< 200 ft
Symboles :   Orages  Brouillard  Fortes neiges  Fortes précipitations  Vent > 20 kt






- Altitude de l'aérodrome : 11 ft


KLFI - Langley Air Force Base

DERNIER METAR :
  • 221856Z 26009KT 10SM FEW100 09/M05 A3035 RMK AO2A SLP284 T00871052 $

METARs EXPIRÉS :
  • 221756Z 24008KT 10SM FEW110 08/M08 A3037 RMK AO2A SLP291 T00781079 10080 21036 58024 $
  • 221656Z AUTO 23009KT 10SM CLR 07/M08 A3042 RMK AO2 SLP308 T00691083 $

TAF TAF KLFI
Valide du 22 à 18h jusqu'au 24 à 00h UTC


221800Z 2218/2324 25009KT 9999 FEW110 QNH3037INS TX10/2221Z TN03/2306Z LAST NO AMDS AFT 2218 NEXT 2410



MET'MAP, la Météo Aéronautique d'un coup d'oeil ! - Copyright ORBIFLY Décembre 2007 - Disclaimer

ORBIFLY MET'MAP TEAM :

Programmation & Développement : Alexandra Zaïnal
Sur une idée originale de : Baudouin d'Aumeries
Assistance à la programmation : Marc-Olivier Méhu
Soutien technique & logistique : Manuel Goepfert

Contact : metmap@orbifly.com




SOURCES & CREDITS :

   NOAA       Earth
Advisory